Time;durP1;ratioP1;P1;durP2;ratioP2;P2;SDS_P1;SDS_P2;PMS_P1;PMS_P2;Temp;Humidity;BMP_temperature;BMP_pressure;BME280_temperature;BME280_humidity;BME280_pressure;Samples;Min_cycle;Max_cycle;Signal;HPM_P1;HPM_P2
2022/12/05 00:00:05;;;;;;;;;71.67;54.67;;;;;;;;5119142;27;45350;-64
2022/12/05 00:02:30;;;;;;;;;69.67;53.67;;;;;;;;5119367;27;45444;-64
2022/12/05 00:04:55;;;;;;;;;68.33;48.67;;;;;;;;5118235;27;45311;-64
2022/12/05 00:07:20;;;;;;;;;66.33;52.00;;;;;;;;5118996;27;45467;-64
2022/12/05 00:09:46;;;;;;;;;61.00;45.67;;;;;;;;5119027;27;45501;-64
2022/12/05 00:12:11;;;;;;;;;70.33;49.00;;;;;;;;5119048;27;45874;-64
2022/12/05 00:14:36;;;;;;;;;66.67;50.33;;;;;;;;5118754;27;47584;-64
2022/12/05 00:17:01;;;;;;;;;66.00;50.33;;;;;;;;5118639;27;45449;-64
2022/12/05 00:19:26;;;;;;;;;69.67;50.00;;;;;;;;5119026;27;45369;-64
2022/12/05 00:21:52;;;;;;;;;69.00;49.00;;;;;;;;5118778;27;45508;-64
2022/12/05 00:24:18;;;;;;;;;66.33;50.67;;;;;;;;5118502;27;46314;-64
2022/12/05 00:26:44;;;;;;;;;68.00;46.67;;;;;;;;5118707;27;45359;-64
2022/12/05 00:29:09;;;;;;;;;69.33;45.67;;;;;;;;5118578;27;45295;-64
2022/12/05 00:31:34;;;;;;;;;62.33;49.00;;;;;;;;5118924;27;45312;-64
2022/12/05 00:34:00;;;;;;;;;66.67;49.33;;;;;;;;5118497;27;45378;-64
2022/12/05 00:36:26;;;;;;;;;71.00;49.00;;;;;;;;5118479;27;45435;-64
2022/12/05 00:38:52;;;;;;;;;63.67;47.67;;;;;;;;5118633;27;45550;-64
2022/12/05 00:41:19;;;;;;;;;71.00;50.00;;;;;;;;5118502;27;45373;-64
2022/12/05 00:43:45;;;;;;;;;64.67;45.67;;;;;;;;5118271;27;45476;-64
2022/12/05 00:46:11;;;;;;;;;65.33;49.33;;;;;;;;5117924;27;45488;-64
2022/12/05 00:48:37;;;;;;;;;63.67;47.00;;;;;;;;5118596;27;45270;-64
2022/12/05 00:51:13;;;;;;;;;71.33;51.00;;;;;;;;5118744;27;45428;-64
2022/12/05 00:53:39;;;;;;;;;61.33;44.67;;;;;;;;5118130;27;46151;-64
2022/12/05 00:56:08;;;;;;;;;70.00;53.00;;;;;;;;5118098;27;45331;-64
2022/12/05 00:58:33;;;;;;;;;66.00;50.00;;;;;;;;5118486;27;45906;-64
2022/12/05 01:01:05;;;;;;;;;58.33;46.67;;;;;;;;5118087;27;45479;-64
2022/12/05 01:03:31;;;;;;;;;68.67;51.67;;;;;;;;5117850;27;46593;-64
2022/12/05 01:05:57;;;;;;;;;70.00;51.00;;;;;;;;5118143;27;45383;-64
2022/12/05 01:08:23;;;;;;;;;69.67;49.33;;;;;;;;5118114;27;45425;-64
2022/12/05 01:10:55;;;;;;;;;63.00;42.67;;;;;;;;5118346;27;45572;-65
2022/12/05 01:13:21;;;;;;;;;62.33;45.67;;;;;;;;5118094;27;45311;-64
2022/12/05 01:15:46;;;;;;;;;64.00;45.67;;;;;;;;5117821;27;45456;-64
2022/12/05 01:18:11;;;;;;;;;75.00;46.67;;;;;;;;5120127;27;45523;-64
2022/12/05 01:20:39;;;;;;;;;67.33;52.33;;;;;;;;5121813;27;45436;-64
2022/12/05 01:23:05;;;;;;;;;67.00;51.67;;;;;;;;5121319;27;46169;-64
2022/12/05 01:25:30;;;;;;;;;70.67;49.00;;;;;;;;5121644;27;45448;-64
2022/12/05 01:27:55;;;;;;;;;70.00;48.67;;;;;;;;5121618;27;45199;-64
2022/12/05 01:30:20;;;;;;;;;76.00;50.00;;;;;;;;5121973;27;45436;-64
2022/12/05 01:32:46;;;;;;;;;67.67;52.00;;;;;;;;5121097;27;46482;-64
2022/12/05 01:35:11;;;;;;;;;70.00;48.33;;;;;;;;5121607;27;45382;-64
2022/12/05 01:37:36;;;;;;;;;69.33;48.67;;;;;;;;5121414;27;45551;-64
2022/12/05 01:40:02;;;;;;;;;72.00;51.33;;;;;;;;5121687;27;45451;-64
2022/12/05 01:42:28;;;;;;;;;66.33;50.67;;;;;;;;5121118;27;46308;-64
2022/12/05 01:44:53;;;;;;;;;64.67;46.00;;;;;;;;5121223;27;45398;-64
2022/12/05 01:47:18;;;;;;;;;67.00;45.33;;;;;;;;5121466;27;45444;-64
2022/12/05 01:49:44;;;;;;;;;63.00;46.33;;;;;;;;5121264;27;45523;-64
2022/12/05 01:52:13;;;;;;;;;61.33;44.00;;;;;;;;5121071;27;45681;-64
2022/12/05 01:54:38;;;;;;;;;57.33;45.00;;;;;;;;5121202;27;45334;-64
2022/12/05 01:57:05;;;;;;;;;52.33;34.67;;;;;;;;5121006;27;45692;-64
2022/12/05 01:59:33;;;;;;;;;66.00;49.67;;;;;;;;5121402;27;45443;-64
2022/12/05 02:01:58;;;;;;;;;65.00;44.67;;;;;;;;5120589;27;46319;-64
2022/12/05 02:04:23;;;;;;;;;65.33;49.33;;;;;;;;5120755;27;45545;-64
2022/12/05 02:06:48;;;;;;;;;71.00;49.00;;;;;;;;5121283;27;45219;-64
2022/12/05 02:09:14;;;;;;;;;68.00;48.67;;;;;;;;5121184;27;45471;-64
2022/12/05 02:11:49;;;;;;;;;71.00;50.67;;;;;;;;5120678;27;46488;-64
2022/12/05 02:14:39;;;;;;;;;74.33;52.33;;;;;;;;5120861;27;45326;-64
2022/12/05 02:17:10;;;;;;;;;69.67;50.33;;;;;;;;5120798;27;45369;-64
2022/12/05 02:19:35;;;;;;;;;74.00;53.33;;;;;;;;5120732;27;45374;-64
2022/12/05 02:22:04;;;;;;;;;67.33;51.00;;;;;;;;5120142;27;45338;-64
2022/12/05 02:24:41;;;;;;;;;62.33;45.00;;;;;;;;5120805;27;45366;-64
2022/12/05 02:27:18;;;;;;;;;68.33;51.33;;;;;;;;5120598;27;45436;-62
2022/12/05 02:29:49;;;;;;;;;64.67;47.33;;;;;;;;5120259;27;45397;-62
2022/12/05 02:32:14;;;;;;;;;52.00;38.00;;;;;;;;5119940;27;46433;-63
2022/12/05 02:34:42;;;;;;;;;73.67;48.67;;;;;;;;5120526;27;45433;-62
2022/12/05 02:37:12;;;;;;;;;68.67;49.33;;;;;;;;5120534;27;45484;-63
2022/12/05 02:39:52;;;;;;;;;72.00;48.00;;;;;;;;5120515;27;45439;-62
2022/12/05 02:42:20;;;;;;;;;70.67;50.67;;;;;;;;5120228;27;46128;-62
2022/12/05 02:45:08;;;;;;;;;64.33;49.33;;;;;;;;5120197;27;45242;-62
2022/12/05 02:47:36;;;;;;;;;71.33;51.00;;;;;;;;5112678;27;45631;-62
2022/12/05 02:50:02;;;;;;;;;61.33;47.00;;;;;;;;5120480;27;45433;-62
2022/12/05 02:52:29;;;;;;;;;64.33;47.33;;;;;;;;5119897;27;46364;-62
2022/12/05 02:54:55;;;;;;;;;68.00;49.33;;;;;;;;5119934;27;45440;-62
2022/12/05 02:57:20;;;;;;;;;65.00;47.33;;;;;;;;5120230;27;45356;-62
2022/12/05 02:59:46;;;;;;;;;66.33;48.67;;;;;;;;5119526;27;45556;-62
2022/12/05 03:02:25;;;;;;;;;61.33;47.33;;;;;;;;5118983;27;45436;-62
2022/12/05 03:04:50;;;;;;;;;65.33;49.33;;;;;;;;5119977;27;45388;-62
2022/12/05 03:07:17;;;;;;;;;61.00;45.33;;;;;;;;5120142;27;45326;-62
2022/12/05 03:09:46;;;;;;;;;66.67;47.00;;;;;;;;5120102;27;45426;-62
2022/12/05 03:12:15;;;;;;;;;71.00;49.00;;;;;;;;5119887;27;45321;-62
2022/12/05 03:14:43;;;;;;;;;59.00;44.67;;;;;;;;5119636;27;45434;-62
2022/12/05 03:17:17;;;;;;;;;62.67;45.33;;;;;;;;5119827;27;45306;-62
2022/12/05 03:19:48;;;;;;;;;68.67;46.00;;;;;;;;5119843;27;45392;-62
2022/12/05 03:22:32;;;;;;;;;61.00;43.33;;;;;;;;5119345;27;46238;-62
2022/12/05 03:24:58;;;;;;;;;60.33;46.00;;;;;;;;5119501;27;45425;-62
2022/12/05 03:27:41;;;;;;;;;63.33;48.00;;;;;;;;5119519;27;45373;-62
2022/12/05 03:30:09;;;;;;;;;63.33;47.33;;;;;;;;5119688;27;45236;-62
2022/12/05 03:32:34;;;;;;;;;59.33;43.33;;;;;;;;5119514;27;46125;-62
2022/12/05 03:34:59;;;;;;;;;70.67;49.00;;;;;;;;5119117;27;45463;-62
2022/12/05 03:37:46;;;;;;;;;59.00;44.67;;;;;;;;5119800;27;45436;-62
2022/12/05 03:40:23;;;;;;;;;57.33;43.00;;;;;;;;5118737;27;45500;-62
2022/12/05 03:42:53;;;;;;;;;58.33;46.67;;;;;;;;5119224;27;47144;-62
2022/12/05 03:45:22;;;;;;;;;61.33;44.33;;;;;;;;5119132;27;45428;-62
2022/12/05 03:47:55;;;;;;;;;62.67;48.00;;;;;;;;5119400;27;45400;-62
2022/12/05 03:50:28;;;;;;;;;61.67;47.67;;;;;;;;5119370;27;45667;-62
2022/12/05 03:52:56;;;;;;;;;62.67;44.67;;;;;;;;5119050;27;46262;-62
2022/12/05 03:55:24;;;;;;;;;58.67;44.33;;;;;;;;5119165;27;45536;-62
2022/12/05 03:57:52;;;;;;;;;60.00;43.67;;;;;;;;5119058;27;45482;-62
2022/12/05 04:00:19;;;;;;;;;55.67;44.67;;;;;;;;5119312;27;45379;-63
2022/12/05 04:03:04;;;;;;;;;65.00;45.00;;;;;;;;5118704;27;46715;-62
2022/12/05 04:05:34;;;;;;;;;52.33;42.67;;;;;;;;5118888;27;45442;-62
2022/12/05 04:08:01;;;;;;;;;53.00;42.33;;;;;;;;5118996;27;45323;-62
2022/12/05 04:10:28;;;;;;;;;60.33;43.33;;;;;;;;5119199;27;45226;-62
2022/12/05 04:12:55;;;;;;;;;63.00;43.00;;;;;;;;5118762;27;46156;-62
2022/12/05 04:15:23;;;;;;;;;53.67;42.67;;;;;;;;5118787;27;45297;-62
2022/12/05 04:17:56;;;;;;;;;61.67;46.00;;;;;;;;5118941;27;45402;-62
2022/12/05 04:23:21;;;;;;;;;51.00;41.33;;;;;;;;5118393;27;45779;-62
2022/12/05 04:25:55;;;;;;;;;57.00;41.67;;;;;;;;5118718;27;45361;-62
2022/12/05 04:28:31;;;;;;;;;56.67;42.00;;;;;;;;5118741;27;45687;-62
2022/12/05 04:31:05;;;;;;;;;54.00;36.33;;;;;;;;5118917;27;45514;-62
2022/12/05 04:33:30;;;;;;;;;55.00;39.67;;;;;;;;5118361;27;45468;-62
2022/12/05 04:36:01;;;;;;;;;53.67;41.00;;;;;;;;5118315;27;45686;-62
2022/12/05 04:38:31;;;;;;;;;65.67;48.00;;;;;;;;5118631;27;45326;-62
2022/12/05 04:40:58;;;;;;;;;56.33;43.33;;;;;;;;5118885;27;45393;-62
2022/12/05 04:43:25;;;;;;;;;61.00;43.00;;;;;;;;5118216;27;45410;-62
2022/12/05 04:45:51;;;;;;;;;62.67;44.33;;;;;;;;5118175;27;45351;-62
2022/12/05 04:48:17;;;;;;;;;59.33;45.00;;;;;;;;5118548;27;45334;-62
2022/12/05 04:50:44;;;;;;;;;56.67;41.67;;;;;;;;5118302;27;45407;-62
2022/12/05 04:53:11;;;;;;;;;51.33;37.33;;;;;;;;5118394;27;46763;-62
2022/12/05 04:55:38;;;;;;;;;61.33;43.00;;;;;;;;5118192;27;45251;-62
2022/12/05 04:58:04;;;;;;;;;51.00;39.33;;;;;;;;5118099;27;45408;-62
2022/12/05 05:00:30;;;;;;;;;59.00;46.00;;;;;;;;5118213;27;45511;-62
2022/12/05 05:03:09;;;;;;;;;66.33;45.00;;;;;;;;5117616;27;46189;-62
2022/12/05 05:05:34;;;;;;;;;58.33;44.00;;;;;;;;5118047;27;45417;-62
2022/12/05 05:07:59;;;;;;;;;60.00;42.67;;;;;;;;5118187;27;45346;-62
2022/12/05 05:10:41;;;;;;;;;46.00;36.33;;;;;;;;5118302;27;45484;-62
2022/12/05 05:13:06;;;;;;;;;53.33;37.67;;;;;;;;5117961;27;45410;-62
2022/12/05 05:15:31;;;;;;;;;56.33;41.00;;;;;;;;5118112;27;45417;-62
2022/12/05 05:17:56;;;;;;;;;56.00;40.67;;;;;;;;5118089;27;45244;-62
2022/12/05 05:20:25;;;;;;;;;55.00;41.00;;;;;;;;5117791;27;45466;-62
2022/12/05 05:22:51;;;;;;;;;56.33;38.67;;;;;;;;5117701;27;46158;-63
2022/12/05 05:25:17;;;;;;;;;60.00;42.67;;;;;;;;5117796;27;45534;-62
2022/12/05 05:27:46;;;;;;;;;51.33;42.33;;;;;;;;5118101;27;45805;-62
2022/12/05 05:30:11;;;;;;;;;55.00;39.33;;;;;;;;5118026;27;45434;-62
2022/12/05 05:32:36;;;;;;;;;59.67;43.33;;;;;;;;5117480;27;45426;-62
2022/12/05 05:35:01;;;;;;;;;56.67;42.67;;;;;;;;5117608;27;45397;-62
2022/12/05 05:37:27;;;;;;;;;59.00;42.33;;;;;;;;5117797;27;45809;-62
2022/12/05 05:39:52;;;;;;;;;55.33;41.00;;;;;;;;5118248;27;45463;-62
2022/12/05 05:42:17;;;;;;;;;53.33;41.33;;;;;;;;5117691;27;45418;-62
2022/12/05 05:44:42;;;;;;;;;44.67;34.67;;;;;;;;5117376;27;45386;-62
2022/12/05 05:47:07;;;;;;;;;59.00;39.67;;;;;;;;5117856;27;45391;-62
2022/12/05 05:49:33;;;;;;;;;56.00;39.00;;;;;;;;5117673;27;45460;-62
2022/12/05 05:51:58;;;;;;;;;41.33;34.33;;;;;;;;5117616;27;46465;-62
2022/12/05 05:54:23;;;;;;;;;56.67;38.67;;;;;;;;5117527;27;45393;-62
2022/12/05 05:56:48;;;;;;;;;63.67;44.00;;;;;;;;5117517;27;45267;-62
2022/12/05 05:59:13;;;;;;;;;55.67;40.67;;;;;;;;5117941;27;45377;-62
2022/12/05 06:01:39;;;;;;;;;54.67;44.00;;;;;;;;5117304;27;45614;-62
2022/12/05 06:04:05;;;;;;;;;57.33;44.00;;;;;;;;5119469;27;45367;-62
2022/12/05 06:06:30;;;;;;;;;59.33;42.33;;;;;;;;5120521;27;45443;-62
2022/12/05 06:08:55;;;;;;;;;44.33;34.00;;;;;;;;5121059;27;45412;-62
2022/12/05 06:11:22;;;;;;;;;58.00;42.33;;;;;;;;5120540;27;47485;-62
2022/12/05 06:13:47;;;;;;;;;64.67;44.33;;;;;;;;5120647;27;45441;-62
2022/12/05 06:16:14;;;;;;;;;54.33;40.00;;;;;;;;5121045;27;45363;-62
2022/12/05 06:18:40;;;;;;;;;58.50;42.00;;;;;;;;5121009;27;45319;-62
2022/12/05 06:21:08;;;;;;;;;55.00;42.67;;;;;;;;5119966;27;46301;-62
2022/12/05 06:23:35;;;;;;;;;60.33;41.33;;;;;;;;5120225;27;45377;-63
2022/12/05 06:26:00;;;;;;;;;73.33;49.00;;;;;;;;5120513;27;45401;-62
2022/12/05 06:28:26;;;;;;;;;60.00;44.67;;;;;;;;5120699;27;45305;-62
2022/12/05 06:30:51;;;;;;;;;60.00;42.00;;;;;;;;5120628;27;46650;-62
2022/12/05 06:33:17;;;;;;;;;54.67;41.00;;;;;;;;5120470;27;45507;-62
2022/12/05 06:35:43;;;;;;;;;52.67;39.67;;;;;;;;5120579;27;45545;-62
2022/12/05 06:38:08;;;;;;;;;57.00;44.00;;;;;;;;5120429;27;45833;-62
2022/12/05 06:40:38;;;;;;;;;56.00;42.33;;;;;;;;5120190;27;46535;-62
2022/12/05 06:43:03;;;;;;;;;54.33;43.00;;;;;;;;5120319;27;45737;-62
2022/12/05 06:45:28;;;;;;;;;56.67;41.00;;;;;;;;5120035;27;45876;-62
2022/12/05 06:47:53;;;;;;;;;160.50;139.00;;;;;;;;5120637;27;45464;-62
2022/12/05 06:50:19;;;;;;;;;68.67;52.33;;;;;;;;5119787;27;45429;-63
2022/12/05 06:52:44;;;;;;;;;64.33;47.67;;;;;;;;5119993;27;45397;-62
2022/12/05 06:55:09;;;;;;;;;50.00;41.33;;;;;;;;5120443;27;45262;-62
2022/12/05 06:57:34;;;;;;;;;54.67;44.00;;;;;;;;5120263;27;45509;-62
2022/12/05 07:02:43;;;;;;;;;63.00;43.67;;;;;;;;5118580;27;45550;-62
2022/12/05 07:05:09;;;;;;;;;66.67;47.00;;;;;;;;5119683;27;45388;-62
2022/12/05 07:07:34;;;;;;;;;67.33;52.33;;;;;;;;5119796;27;45432;-62
2022/12/05 07:09:59;;;;;;;;;59.67;47.00;;;;;;;;5119070;27;46551;-62
2022/12/05 07:12:25;;;;;;;;;58.33;47.00;;;;;;;;5122452;27;45251;-63
2022/12/05 07:14:50;;;;;;;;;64.33;47.33;;;;;;;;5140693;27;45328;-63
2022/12/05 07:17:16;;;;;;;;;63.67;49.00;;;;;;;;5140326;27;45297;-63
2022/12/05 07:19:42;;;;;;;;;63.33;47.33;;;;;;;;5140607;27;46193;-63
2022/12/05 07:22:07;;;;;;;;;74.00;57.00;;;;;;;;5139299;27;45640;-63
2022/12/05 07:24:32;;;;;;;;;62.67;47.67;;;;;;;;5140370;27;45329;-63
2022/12/05 07:26:57;;;;;;;;;72.33;51.33;;;;;;;;5140736;27;45293;-63
2022/12/05 07:29:23;;;;;;;;;76.25;59.25;;;;;;;;5140175;27;45513;-63
2022/12/05 07:31:48;;;;;;;;;66.33;47.00;;;;;;;;5140297;27;45448;-63
2022/12/05 07:34:13;;;;;;;;;58.67;48.67;;;;;;;;5140531;27;45348;-63
2022/12/05 07:36:38;;;;;;;;;70.67;52.67;;;;;;;;5131172;27;45425;-63
2022/12/05 07:39:03;;;;;;;;;65.67;48.33;;;;;;;;5118879;27;45605;-63
2022/12/05 07:41:30;;;;;;;;;66.00;47.00;;;;;;;;5118987;27;45373;-62
2022/12/05 07:43:56;;;;;;;;;66.33;48.33;;;;;;;;5119635;27;45351;-62
2022/12/05 07:46:22;;;;;;;;;65.67;48.00;;;;;;;;5119328;27;45421;-62
2022/12/05 07:48:47;;;;;;;;;69.33;53.00;;;;;;;;5118977;27;46735;-62
2022/12/05 07:51:13;;;;;;;;;67.33;50.67;;;;;;;;5119132;27;45342;-62
2022/12/05 07:53:40;;;;;;;;;58.33;47.33;;;;;;;;5119132;27;45540;-62
2022/12/05 07:56:06;;;;;;;;;65.67;49.67;;;;;;;;5119387;27;45424;-62
2022/12/05 07:58:32;;;;;;;;;56.33;44.00;;;;;;;;5118965;27;47189;-62
2022/12/05 08:01:04;;;;;;;;;59.00;45.67;;;;;;;;5118822;27;45419;-63
2022/12/05 08:03:29;;;;;;;;;60.67;46.00;;;;;;;;5119082;27;45336;-63
2022/12/05 08:05:55;;;;;;;;;72.67;52.00;;;;;;;;5117572;27;45519;-63
2022/12/05 08:08:20;;;;;;;;;62.67;50.33;;;;;;;;5118856;27;46269;-62
2022/12/05 08:10:45;;;;;;;;;68.67;49.00;;;;;;;;5119136;27;45372;-63
2022/12/05 08:13:10;;;;;;;;;62.00;45.33;;;;;;;;5118757;27;45363;-62
2022/12/05 08:15:35;;;;;;;;;58.00;40.33;;;;;;;;5119149;27;45345;-63
2022/12/05 08:18:01;;;;;;;;;64.33;48.00;;;;;;;;5118565;27;45397;-63
2022/12/05 08:20:26;;;;;;;;;54.67;45.33;;;;;;;;5118848;27;45553;-63
2022/12/05 08:22:52;;;;;;;;;64.00;46.67;;;;;;;;5118565;27;45346;-63
2022/12/05 08:25:18;;;;;;;;;71.33;50.67;;;;;;;;5118892;27;45544;-63
2022/12/05 08:27:43;;;;;;;;;66.00;50.00;;;;;;;;5118169;27;45363;-63
2022/12/05 08:30:08;;;;;;;;;74.67;52.33;;;;;;;;5118506;27;45572;-63
2022/12/05 08:32:33;;;;;;;;;64.33;46.33;;;;;;;;5118839;27;45362;-63
2022/12/05 08:34:58;;;;;;;;;64.67;50.00;;;;;;;;5118868;27;45845;-63
2022/12/05 08:37:24;;;;;;;;;58.67;43.00;;;;;;;;5118237;27;46269;-63
2022/12/05 08:39:49;;;;;;;;;60.33;43.00;;;;;;;;5118718;27;45403;-63
2022/12/05 08:42:14;;;;;;;;;59.33;41.67;;;;;;;;5118461;27;45452;-63
2022/12/05 08:44:39;;;;;;;;;56.67;43.67;;;;;;;;5118923;27;45399;-63
2022/12/05 08:47:04;;;;;;;;;64.00;47.67;;;;;;;;5118275;27;45404;-63
2022/12/05 08:49:30;;;;;;;;;57.33;45.67;;;;;;;;5118254;27;45448;-63
2022/12/05 08:51:55;;;;;;;;;61.67;45.00;;;;;;;;5118398;27;45420;-63
2022/12/05 08:54:20;;;;;;;;;66.67;47.67;;;;;;;;5118729;27;45285;-63
2022/12/05 08:56:48;;;;;;;;;58.67;43.33;;;;;;;;5118218;27;45480;-63
2022/12/05 08:59:14;;;;;;;;;58.00;46.00;;;;;;;;5118308;27;45284;-63
2022/12/05 09:01:40;;;;;;;;;57.00;45.00;;;;;;;;5118287;27;45195;-63
2022/12/05 09:04:06;;;;;;;;;69.33;50.67;;;;;;;;5118329;27;45387;-63
2022/12/05 09:06:33;;;;;;;;;65.67;49.00;;;;;;;;5117916;27;47379;-63
2022/12/05 09:08:59;;;;;;;;;62.33;44.33;;;;;;;;5118159;27;45599;-63
2022/12/05 09:11:26;;;;;;;;;64.00;49.00;;;;;;;;5117995;27;45785;-63
2022/12/05 09:13:52;;;;;;;;;77.67;56.67;;;;;;;;5118029;27;45438;-63
2022/12/05 09:16:28;;;;;;;;;53.00;42.00;;;;;;;;5117979;27;45431;-63
2022/12/05 09:18:54;;;;;;;;;82.50;63.75;;;;;;;;5117594;27;45451;-63
2022/12/05 09:21:20;;;;;;;;;50.67;41.33;;;;;;;;5117899;27;45288;-63
2022/12/05 09:23:46;;;;;;;;;54.67;42.33;;;;;;;;5118143;27;45424;-63
2022/12/05 09:26:12;;;;;;;;;61.67;46.67;;;;;;;;5117469;27;46277;-63
2022/12/05 09:28:37;;;;;;;;;57.33;43.67;;;;;;;;5117878;27;45418;-63
2022/12/05 09:31:07;;;;;;;;;61.00;39.67;;;;;;;;5117845;27;45413;-63
2022/12/05 09:33:34;;;;;;;;;56.67;43.33;;;;;;;;5118051;27;45428;-63
2022/12/05 09:36:07;;;;;;;;;60.33;44.00;;;;;;;;5117697;27;46154;-63
2022/12/05 09:38:32;;;;;;;;;59.33;42.67;;;;;;;;5118721;27;45423;-63
2022/12/05 09:41:13;;;;;;;;;52.33;41.00;;;;;;;;5121367;27;45376;-63
2022/12/05 09:43:58;;;;;;;;;69.33;50.33;;;;;;;;5121538;27;45528;-63
2022/12/05 09:46:23;;;;;;;;;52.33;39.67;;;;;;;;5121230;27;46560;-63
2022/12/05 09:48:49;;;;;;;;;60.67;44.00;;;;;;;;5121150;27;45519;-63
2022/12/05 09:51:15;;;;;;;;;62.67;44.00;;;;;;;;5120959;27;45356;-63
2022/12/05 09:53:42;;;;;;;;;62.33;44.33;;;;;;;;5121186;27;45475;-63
2022/12/05 09:56:16;;;;;;;;;50.67;37.33;;;;;;;;5121164;27;46888;-63
2022/12/05 09:58:41;;;;;;;;;62.33;43.00;;;;;;;;5121010;27;45393;-63
2022/12/05 10:01:32;;;;;;;;;87.25;68.25;;;;;;;;5121050;27;45387;-63
2022/12/05 10:04:01;;;;;;;;;58.33;44.33;;;;;;;;5077952;28;45420;-63
2022/12/05 10:06:39;;;;;;;;;73.33;55.33;;;;;;;;5077473;28;45598;-63
2022/12/05 10:09:16;;;;;;;;;67.33;53.00;;;;;;;;5077178;28;45312;-63
2022/12/05 10:12:00;;;;;;;;;56.00;45.67;;;;;;;;5077771;28;45556;-63
2022/12/05 10:14:29;;;;;;;;;60.00;42.00;;;;;;;;5077792;28;45388;-63
2022/12/05 10:16:56;;;;;;;;;57.33;42.33;;;;;;;;5077481;28;45440;-63
2022/12/05 10:19:27;;;;;;;;;58.67;44.00;;;;;;;;5077309;28;45957;-63
2022/12/05 10:22:08;;;;;;;;;66.00;50.33;;;;;;;;5077022;28;45404;-63
2022/12/05 10:24:48;;;;;;;;;67.00;47.67;;;;;;;;5077715;28;45892;-63
2022/12/05 10:27:18;;;;;;;;;57.33;44.33;;;;;;;;5077242;28;45673;-63
2022/12/05 10:29:47;;;;;;;;;67.00;53.00;;;;;;;;5077144;28;45586;-63
2022/12/05 10:32:13;;;;;;;;;57.67;47.67;;;;;;;;5077374;28;45384;-63
2022/12/05 10:34:42;;;;;;;;;56.00;42.33;;;;;;;;5077578;28;45301;-63
2022/12/05 10:37:16;;;;;;;;;64.67;49.33;;;;;;;;5077017;28;46626;-63
2022/12/05 10:39:41;;;;;;;;;64.67;53.33;;;;;;;;5078799;27;45395;-63
2022/12/05 10:42:11;;;;;;;;;72.67;53.33;;;;;;;;5120494;27;45464;-63
2022/12/05 10:44:36;;;;;;;;;63.67;47.67;;;;;;;;5120459;27;45435;-63
2022/12/05 10:47:01;;;;;;;;;58.33;43.33;;;;;;;;5120296;27;46108;-63
2022/12/05 10:49:28;;;;;;;;;66.00;50.00;;;;;;;;5119873;27;45409;-63
2022/12/05 10:51:53;;;;;;;;;62.00;47.33;;;;;;;;5120313;27;45567;-63
2022/12/05 10:54:22;;;;;;;;;60.33;44.00;;;;;;;;5120249;27;45341;-63
2022/12/05 10:56:48;;;;;;;;;58.67;45.00;;;;;;;;5120021;27;46534;-63
2022/12/05 10:59:18;;;;;;;;;61.00;44.00;;;;;;;;5120031;27;45347;-63
2022/12/05 11:01:54;;;;;;;;;64.33;49.00;;;;;;;;5120177;27;45359;-63
2022/12/05 11:04:30;;;;;;;;;71.33;54.67;;;;;;;;5120162;27;45415;-63
2022/12/05 11:07:00;;;;;;;;;73.67;53.33;;;;;;;;5119610;27;48112;-63
2022/12/05 11:09:27;;;;;;;;;71.67;53.00;;;;;;;;5119860;27;45259;-63
2022/12/05 11:11:58;;;;;;;;;60.00;47.00;;;;;;;;5119794;27;45309;-63
2022/12/05 11:14:25;;;;;;;;;94.25;70.00;;;;;;;;5120087;27;45355;-63
2022/12/05 11:16:53;;;;;;;;;65.33;49.67;;;;;;;;5119694;27;46365;-63
2022/12/05 11:19:20;;;;;;;;;69.00;51.00;;;;;;;;5119514;27;45384;-63
2022/12/05 11:21:46;;;;;;;;;74.67;58.33;;;;;;;;5119618;27;45341;-63
2022/12/05 11:24:22;;;;;;;;;66.00;51.33;;;;;;;;5119745;27;45501;-63
2022/12/05 11:26:47;;;;;;;;;78.00;54.67;;;;;;;;5119334;27;46505;-63
2022/12/05 11:29:29;;;;;;;;;116.75;99.75;;;;;;;;5119585;27;45431;-63
2022/12/05 11:31:54;;;;;;;;;92.75;73.25;;;;;;;;5119797;27;45323;-63
2022/12/05 11:34:21;;;;;;;;;93.75;75.50;;;;;;;;5119399;27;45290;-63
2022/12/05 11:36:49;;;;;;;;;71.67;52.00;;;;;;;;5119302;27;46808;-63
2022/12/05 11:39:14;;;;;;;;;57.00;46.00;;;;;;;;5119291;27;45389;-63
2022/12/05 11:41:51;;;;;;;;;65.00;48.33;;;;;;;;5119305;27;45439;-63
2022/12/05 11:44:19;;;;;;;;;61.33;48.00;;;;;;;;5119632;27;45394;-63
2022/12/05 11:46:47;;;;;;;;;71.33;48.67;;;;;;;;5119365;27;45442;-63
2022/12/05 11:49:27;;;;;;;;;59.33;41.33;;;;;;;;5119177;27;45400;-63
2022/12/05 11:52:09;;;;;;;;;73.67;54.33;;;;;;;;5119611;27;45301;-63
2022/12/05 11:54:59;;;;;;;;;82.50;64.00;;;;;;;;5119076;27;45375;-63
2022/12/05 11:57:43;;;;;;;;;81.33;60.33;;;;;;;;5118944;27;46703;-63
2022/12/05 12:00:08;;;;;;;;;56.33;46.33;;;;;;;;5118941;27;45429;-63
2022/12/05 12:02:48;;;;;;;;;66.33;52.33;;;;;;;;5118311;27;45367;-63
2022/12/05 12:05:16;;;;;;;;;56.67;41.33;;;;;;;;5119622;27;45440;-62
2022/12/05 12:07:56;;;;;;;;;71.67;52.67;;;;;;;;5118766;27;45369;-63
2022/12/05 12:10:27;;;;;;;;;88.00;62.25;;;;;;;;5118641;27;45379;-63
2022/12/05 12:13:10;;;;;;;;;72.00;53.33;;;;;;;;5119141;27;45230;-62
2022/12/05 12:15:45;;;;;;;;;60.33;45.33;;;;;;;;5119148;27;45261;-63
2022/12/05 12:18:29;;;;;;;;;72.00;51.67;;;;;;;;5118375;27;46299;-63
2022/12/05 12:20:54;;;;;;;;;65.00;50.67;;;;;;;;5118643;27;45613;-63
2022/12/05 12:23:32;;;;;;;;;89.50;70.00;;;;;;;;5118762;27;45491;-63
2022/12/05 12:26:17;;;;;;;;;74.33;54.00;;;;;;;;5119046;27;45421;-63
2022/12/05 12:28:44;;;;;;;;;69.33;51.00;;;;;;;;5118594;27;46106;-63
2022/12/05 12:31:09;;;;;;;;;71.00;48.67;;;;;;;;5118247;27;45556;-63
2022/12/05 12:33:39;;;;;;;;;67.33;50.67;;;;;;;;5118749;27;45433;-63
2022/12/05 12:36:16;;;;;;;;;60.00;45.00;;;;;;;;5119070;27;45295;-63
2022/12/05 12:38:51;;;;;;;;;58.00;41.67;;;;;;;;5118238;27;46680;-63
2022/12/05 12:41:34;;;;;;;;;59.67;40.00;;;;;;;;5118284;27;45351;-63
2022/12/05 12:44:18;;;;;;;;;55.00;40.00;;;;;;;;5118317;27;45243;-63
2022/12/05 12:46:49;;;;;;;;;55.33;44.67;;;;;;;;5118612;27;45448;-63
2022/12/05 12:49:27;;;;;;;;;58.33;43.67;;;;;;;;5118395;27;45374;-63
2022/12/05 12:51:53;;;;;;;;;69.33;50.67;;;;;;;;5118139;27;45421;-62
2022/12/05 12:54:34;;;;;;;;;57.33;45.33;;;;;;;;5118319;27;45456;-62
2022/12/05 12:57:02;;;;;;;;;67.00;50.33;;;;;;;;5118477;27;45432;-63
2022/12/05 12:59:50;;;;;;;;;60.67;45.33;;;;;;;;5118220;27;46158;-63
2022/12/05 13:02:16;;;;;;;;;65.00;50.00;;;;;;;;5117983;27;45416;-63
2022/12/05 13:04:44;;;;;;;;;44.00;29.33;;;;;;;;5118123;27;45704;-63
2022/12/05 13:07:12;;;;;;;;;83.75;62.50;;;;;;;;5118167;27;45370;-63
2022/12/05 13:09:46;;;;;;;;;73.50;56.75;;;;;;;;5116700;27;46075;-62
2022/12/05 13:12:16;;;;;;;;;63.00;49.67;;;;;;;;5117900;27;45515;-62
2022/12/05 13:14:48;;;;;;;;;66.67;48.00;;;;;;;;5117893;27;45429;-62
2022/12/05 13:17:15;;;;;;;;;61.67;45.33;;;;;;;;5118236;27;45298;-62
2022/12/05 13:19:40;;;;;;;;;69.00;49.33;;;;;;;;5117746;27;46213;-63
2022/12/05 13:22:07;;;;;;;;;65.67;45.67;;;;;;;;5117613;27;45453;-63
2022/12/05 13:24:33;;;;;;;;;78.67;57.33;;;;;;;;5117890;27;45384;-63
2022/12/05 13:27:04;;;;;;;;;70.67;53.00;;;;;;;;5117984;27;45296;-62
2022/12/05 13:29:32;;;;;;;;;67.33;52.00;;;;;;;;5117895;27;45570;-62
2022/12/05 13:31:59;;;;;;;;;78.67;58.33;;;;;;;;5117522;27;45386;-62
2022/12/05 13:34:32;;;;;;;;;70.67;48.00;;;;;;;;5117656;27;45414;-62
2022/12/05 13:42:35;;;;;;;;;76.67;57.67;;;;;;;;5117445;27;45382;-63
2022/12/05 13:45:03;;;;;;;;;65.00;50.33;;;;;;;;5117686;27;45243;-63
2022/12/05 13:47:31;;;;;;;;;72.00;54.33;;;;;;;;5117813;27;45421;-65
2022/12/05 13:49:57;;;;;;;;;67.00;54.00;;;;;;;;5117282;27;45673;-63
2022/12/05 13:52:27;;;;;;;;;86.50;63.25;;;;;;;;5117443;27;45313;-63
2022/12/05 13:55:10;;;;;;;;;82.25;60.75;;;;;;;;5117597;27;45382;-63
2022/12/05 13:57:38;;;;;;;;;69.33;48.00;;;;;;;;5117715;27;45327;-62
2022/12/05 14:00:06;;;;;;;;;76.67;57.33;;;;;;;;5117314;27;46097;-62
2022/12/05 14:02:44;;;;;;;;;79.33;54.00;;;;;;;;5117129;27;45390;-62
2022/12/05 14:05:29;;;;;;;;;85.00;64.00;;;;;;;;5117355;27;45358;-62
2022/12/05 14:07:55;;;;;;;;;73.00;52.33;;;;;;;;5116870;27;45533;-63
2022/12/05 14:10:22;;;;;;;;;77.67;57.33;;;;;;;;5117017;27;46495;-63
2022/12/05 14:12:47;;;;;;;;;75.00;53.00;;;;;;;;5117253;27;45394;-63
2022/12/05 14:15:31;;;;;;;;;67.00;46.67;;;;;;;;5117342;27;45345;-64
2022/12/05 14:18:02;;;;;;;;;69.67;51.00;;;;;;;;5117390;27;45525;-63
2022/12/05 14:20:27;;;;;;;;;99.00;88.50;;;;;;;;5116747;27;45321;-63
2022/12/05 14:22:58;;;;;;;;;73.67;53.33;;;;;;;;5117092;27;45473;-63
2022/12/05 14:25:40;;;;;;;;;69.33;52.33;;;;;;;;5119448;27;45349;-63
2022/12/05 14:28:14;;;;;;;;;64.00;47.67;;;;;;;;5120979;27;45410;-63
2022/12/05 14:30:51;;;;;;;;;61.00;46.33;;;;;;;;5120264;27;45647;-63
2022/12/05 14:33:21;;;;;;;;;73.00;53.67;;;;;;;;5120436;27;45393;-62
2022/12/05 14:35:49;;;;;;;;;62.00;47.33;;;;;;;;5120586;27;45260;-62